Time;durP1;ratioP1;P1;durP2;ratioP2;P2;SDS_P1;SDS_P2;PMS_P1;PMS_P2;Temp;Humidity;BMP_temperature;BMP_pressure;BME280_temperature;BME280_humidity;BME280_pressure;Samples;Min_cycle;Max_cycle;Signal;HPM_P1;HPM_P2
2022/09/27 00:00:42;;;;;;;13.15;3.22;;;;;;;8.65;100.00;99579.06;5140041;27;20046;-90
2022/09/27 00:03:09;;;;;;;17.33;3.00;;;;;;;8.65;100.00;99574.50;5140205;27;20046;-90
2022/09/27 00:05:38;;;;;;;12.50;2.80;;;;;;;8.60;100.00;99561.66;5139598;27;20027;-90
2022/09/27 00:08:03;;;;;;;8.82;2.10;;;;;;;8.58;100.00;99558.38;5139159;27;20117;-88
2022/09/27 00:10:30;;;;;;;11.23;2.40;;;;;;;8.58;100.00;99566.50;5121446;27;20060;-88
2022/09/27 00:12:57;;;;;;;10.83;1.97;;;;;;;8.56;100.00;99578.59;5139420;27;20033;-88
2022/09/27 00:15:22;;;;;;;10.20;1.88;;;;;;;8.55;100.00;99575.06;5139429;27;20083;-88
2022/09/27 00:17:51;;;;;;;10.43;1.90;;;;;;;8.52;100.00;99575.53;5139240;27;20031;-88
2022/09/27 00:20:19;;;;;;;11.20;1.80;;;;;;;8.53;100.00;99587.16;5139244;27;20034;-88
2022/09/27 00:22:54;;;;;;;7.10;1.83;;;;;;;8.50;100.00;99574.94;5139357;27;20132;-88
2022/09/27 00:25:21;;;;;;;11.30;1.60;;;;;;;8.50;100.00;99583.03;5105760;27;20037;-87
2022/09/27 00:27:48;;;;;;;8.95;2.20;;;;;;;8.49;100.00;99589.53;5139194;27;20026;-87
2022/09/27 00:30:19;;;;;;;9.00;1.40;;;;;;;8.50;100.00;99599.25;5138825;27;20027;-88
2022/09/27 00:32:44;;;;;;;11.07;1.40;;;;;;;8.49;100.00;99610.31;5139896;27;20023;-88
2022/09/27 00:35:10;;;;;;;9.47;1.23;;;;;;;8.51;100.00;99614.44;5139100;27;20080;-87
2022/09/27 00:37:38;;;;;;;6.47;1.20;;;;;;;8.52;100.00;99613.38;5138733;27;20486;-88
2022/09/27 00:40:04;;;;;;;9.23;1.60;;;;;;;8.52;100.00;99607.97;5139508;27;20113;-88
2022/09/27 00:42:29;;;;;;;7.20;1.35;;;;;;;8.52;100.00;99601.72;5138842;27;20530;-88
2022/09/27 00:45:11;;;;;;;14.67;1.43;;;;;;;8.51;100.00;99594.69;5139146;27;20038;-88
2022/09/27 00:48:11;;;;;;;4.28;0.95;;;;;;;8.50;100.00;99606.56;5139091;27;20027;-88
2022/09/27 00:50:45;;;;;;;4.97;1.63;;;;;;;8.49;100.00;99602.19;5134715;27;20035;-88
2022/09/27 00:53:16;;;;;;;4.78;1.23;;;;;;;8.46;100.00;99600.81;5138643;27;20023;-88
2022/09/27 00:55:58;;;;;;;9.80;1.23;;;;;;;8.46;100.00;99595.41;5139748;27;20034;-87
2022/09/27 00:58:34;;;;;;;7.40;1.20;;;;;;;8.46;100.00;99594.56;5157203;27;20027;-88
2022/09/27 01:01:05;;;;;;;3.88;0.80;;;;;;;8.44;100.00;99592.09;5138827;27;20043;-88
2022/09/27 01:03:38;;;;;;;10.35;1.00;;;;;;;8.40;100.00;99591.69;5139350;27;20022;-88
2022/09/27 01:06:14;;;;;;;6.85;0.93;;;;;;;8.37;100.00;99594.03;5139031;27;20109;-88
2022/09/27 01:08:41;;;;;;;6.22;0.70;;;;;;;8.29;100.00;99587.09;5138704;27;20061;-88
2022/09/27 01:11:34;;;;;;;6.87;1.10;;;;;;;8.29;100.00;99605.19;5138320;27;20027;-88
2022/09/27 01:14:35;;;;;;;6.60;0.77;;;;;;;8.22;100.00;99595.31;5156800;27;20026;-88
2022/09/27 01:17:42;;;;;;;6.93;1.00;;;;;;;8.18;100.00;99594.13;5138549;27;20143;-88
2022/09/27 01:20:45;;;;;;;9.20;0.57;;;;;;;8.15;100.00;99591.88;5137811;27;20497;-88
2022/09/27 01:23:37;;;;;;;4.38;0.90;;;;;;;8.14;100.00;99600.22;5137860;27;20039;-87
2022/09/27 01:26:16;;;;;;;9.53;1.83;;;;;;;8.11;100.00;99601.50;5137969;27;20039;-87
2022/09/27 01:29:17;;;;;;;4.30;0.70;;;;;;;8.07;100.00;99603.84;5138348;27;20023;-88
2022/09/27 01:32:01;;;;;;;3.53;0.70;;;;;;;8.03;100.00;99609.91;5135825;27;20478;-87
2022/09/27 01:35:05;;;;;;;5.15;0.90;;;;;;;8.03;100.00;99610.75;5138055;27;20023;-88
2022/09/27 01:37:55;;;;;;;7.35;0.80;;;;;;;8.03;100.00;99620.72;5137651;27;20465;-87
2022/09/27 01:40:37;;;;;;;4.77;0.70;;;;;;;8.00;100.00;99622.00;5137423;27;20035;-88
2022/09/27 01:43:54;;;;;;;5.00;0.60;;;;;;;7.99;100.00;99620.34;5138041;27;20121;-88
2022/09/27 01:46:25;;;;;;;5.82;0.70;;;;;;;7.96;100.00;99617.25;5072113;28;20028;-87
2022/09/27 01:48:52;;;;;;;9.10;0.70;;;;;;;7.94;100.00;99622.91;5055470;28;20035;-88
2022/09/27 01:51:35;;;;;;;13.15;0.90;;;;;;;7.92;100.00;99627.72;5056155;28;20048;-88
2022/09/27 01:54:06;;;;;;;4.60;1.03;;;;;;;7.91;100.00;99631.47;5055325;28;20032;-88
2022/09/27 01:56:37;;;;;;;9.10;0.70;;;;;;;7.93;100.00;99636.63;5054963;28;20123;-88
2022/09/27 01:59:21;;;;;;;7.85;1.02;;;;;;;7.91;100.00;99642.25;5055044;28;20087;-87
2022/09/27 02:01:58;;;;;;;5.90;0.85;;;;;;;7.87;100.00;99631.09;5054748;28;20566;-88
2022/09/27 02:04:27;;;;;;;5.78;1.00;;;;;;;7.87;100.00;99623.00;5121490;27;20043;-88
2022/09/27 02:06:58;;;;;;;4.93;0.60;;;;;;;7.80;100.00;99629.53;5137338;27;20030;-88
2022/09/27 02:09:40;;;;;;;11.57;1.05;;;;;;;7.75;100.00;99616.72;5155710;27;20371;-88
2022/09/27 02:12:12;;;;;;;8.10;0.60;;;;;;;7.71;100.00;99631.72;5137821;27;20062;-88
2022/09/27 02:14:56;;;;;;;7.32;0.50;;;;;;;7.68;100.00;99638.41;5137191;27;20021;-87
2022/09/27 02:17:41;;;;;;;5.38;0.45;;;;;;;7.66;100.00;99634.25;5137588;27;20113;-88
2022/09/27 02:20:34;;;;;;;3.63;0.50;;;;;;;7.60;100.00;99637.88;5136995;27;20037;-88
2022/09/27 02:23:15;;;;;;;5.65;0.63;;;;;;;7.60;100.00;99629.78;5155697;27;20023;-88
2022/09/27 02:26:24;;;;;;;6.05;0.50;;;;;;;7.60;100.00;99629.78;5137710;27;20484;-88
2022/09/27 02:29:02;;;;;;;4.90;0.52;;;;;;;7.61;100.00;99631.44;5137516;27;20343;-88
2022/09/27 02:31:28;;;;;;;7.93;1.25;;;;;;;7.60;100.00;99622.50;5136743;27;20041;-88
2022/09/27 02:34:08;;;;;;;5.87;0.70;;;;;;;7.60;100.00;99627.88;5136248;27;20023;-88
2022/09/27 02:36:33;;;;;;;6.57;0.75;;;;;;;7.58;100.00;99637.28;5137146;27;20488;-88
2022/09/27 02:39:05;;;;;;;8.47;0.70;;;;;;;7.58;100.00;99642.69;5119512;27;20064;-88
2022/09/27 02:41:32;;;;;;;10.07;0.77;;;;;;;7.54;100.00;99645.84;5137181;27;20066;-88
2022/09/27 02:44:02;;;;;;;5.35;0.60;;;;;;;7.50;100.00;99652.72;5136489;27;20031;-88
2022/09/27 02:47:05;;;;;;;3.10;0.70;;;;;;;7.44;100.00;99648.22;5136779;27;20027;-88
2022/09/27 02:49:49;;;;;;;8.07;0.55;;;;;;;7.38;100.00;99632.91;5136336;27;20359;-88
2022/09/27 02:52:29;;;;;;;4.95;0.50;;;;;;;7.33;100.00;99635.47;5137291;27;20035;-88
2022/09/27 02:55:20;;;;;;;6.35;0.57;;;;;;;7.28;100.00;99638.84;5136284;27;20550;-88
2022/09/27 02:58:08;;;;;;;9.50;0.65;;;;;;;7.24;100.00;99634.94;5137235;27;20031;-87
2022/09/27 03:00:45;;;;;;;9.90;0.60;;;;;;;7.25;100.00;99636.59;5136634;27;20062;-88
2022/09/27 03:03:35;;;;;;;;;;;;;;;;;;;;;
2022/09/27 03:06:06;;;;;;;6.53;1.00;;;;;;;7.27;100.00;99631.78;5155827;27;20037;-87
2022/09/27 03:08:32;;;;;;;10.50;1.00;;;;;;;7.28;100.00;99633.44;5136917;27;20109;-88
2022/09/27 03:10:57;;;;;;;7.90;1.03;;;;;;;7.26;100.00;99629.31;5136574;27;20033;-88
2022/09/27 03:13:23;;;;;;;7.35;1.25;;;;;;;7.27;100.00;99628.28;5119262;27;20411;-88
2022/09/27 03:15:51;;;;;;;12.80;1.23;;;;;;;7.25;100.00;99631.19;5136860;27;20117;-88
2022/09/27 03:18:16;;;;;;;7.72;1.10;;;;;;;7.23;100.00;99624.38;5154793;27;20101;-88
2022/09/27 03:20:42;;;;;;;7.13;1.13;;;;;;;7.20;100.00;99623.78;5119406;27;20033;-88
2022/09/27 03:23:13;;;;;;;10.80;1.70;;;;;;;7.20;100.00;99633.72;5154714;27;20038;-88
2022/09/27 03:25:46;;;;;;;6.28;0.90;;;;;;;7.19;100.00;99624.00;5137287;27;20022;-88
2022/09/27 03:31:46;;;;;;;7.93;1.00;;;;;;;7.23;100.00;99635.97;5091306;28;20043;-87
2022/09/27 03:34:12;;;;;;;14.73;1.10;;;;;;;7.27;100.00;99644.47;5057097;28;20032;-88
2022/09/27 03:40:02;;;;;;;7.63;1.10;;;;;;;7.31;100.00;99645.66;5091009;28;20514;-88
2022/09/27 03:42:35;;;;;;;10.05;1.20;;;;;;;7.33;100.00;99649.78;5092142;27;20118;-88
2022/09/27 03:45:01;;;;;;;11.23;0.95;;;;;;;7.34;100.00;99650.63;5156828;27;20034;-88
2022/09/27 03:47:34;;;;;;;10.50;1.33;;;;;;;7.37;100.00;99656.38;5140276;27;20027;-89
2022/09/27 03:50:05;;;;;;;8.43;1.30;;;;;;;7.40;100.00;99663.22;5140198;27;20026;-89
2022/09/27 03:52:33;;;;;;;5.95;1.05;;;;;;;7.41;100.00;99664.03;5139506;27;20041;-89
2022/09/27 03:55:08;;;;;;;7.65;0.85;;;;;;;7.44;100.00;99667.13;5106516;27;20121;-89
2022/09/27 03:57:33;;;;;;;11.48;1.00;;;;;;;7.48;100.00;99683.69;5139576;27;20058;-89
2022/09/27 04:00:02;;;;;;;7.27;0.77;;;;;;;7.47;100.00;99680.16;5139925;27;20450;-89
2022/09/27 04:02:30;;;;;;;8.25;1.02;;;;;;;7.49;100.00;99688.84;5139806;27;20054;-89
2022/09/27 04:04:55;;;;;;;8.27;0.87;;;;;;;7.51;100.00;99691.31;5122620;27;20082;-89
2022/09/27 04:07:22;;;;;;;8.13;1.00;;;;;;;7.48;100.00;99687.19;5139330;27;20022;-89
2022/09/27 04:09:50;;;;;;;7.38;0.85;;;;;;;7.48;100.00;99686.38;5122937;27;20446;-89
2022/09/27 04:12:16;;;;;;;5.90;0.60;;;;;;;7.43;100.00;99700.53;5139532;27;20049;-88
2022/09/27 04:14:41;;;;;;;4.82;0.80;;;;;;;7.39;100.00;99693.94;5139061;27;20462;-87
2022/09/27 04:17:09;;;;;;;8.70;1.80;;;;;;;7.38;100.00;99694.97;5139107;27;20091;-88
2022/09/27 04:19:37;;;;;;;5.32;0.70;;;;;;;7.32;100.00;99680.53;5139321;27;20019;-88
2022/09/27 04:22:02;;;;;;;5.03;0.60;;;;;;;7.31;100.00;99669.97;5139313;27;20066;-87
2022/09/27 04:24:28;;;;;;;10.32;1.38;;;;;;;7.29;100.00;99663.94;5139183;27;20057;-88
2022/09/27 04:26:56;;;;;;;4.77;0.90;;;;;;;7.28;100.00;99659.56;5139253;27;20027;-88
2022/09/27 04:29:24;;;;;;;9.63;0.80;;;;;;;7.26;100.00;99662.50;5158259;27;20030;-88
2022/09/27 04:31:50;;;;;;;3.75;0.40;;;;;;;7.24;100.00;99661.91;5139343;27;20378;-88
2022/09/27 04:34:16;;;;;;;4.00;0.47;;;;;;;7.22;100.00;99652.38;5121881;27;20039;-88
2022/09/27 04:36:41;;;;;;;3.00;0.50;;;;;;;7.19;100.00;99669.88;5139097;27;20178;-88
2022/09/27 04:39:09;;;;;;;6.13;0.60;;;;;;;7.18;100.00;99662.81;5139011;27;20504;-87
2022/09/27 04:41:42;;;;;;;4.75;0.60;;;;;;;7.18;100.00;99657.41;5138987;27;20030;-88
2022/09/27 04:44:07;;;;;;;9.15;0.60;;;;;;;7.16;100.00;99660.34;5157225;27;20495;-87
2022/09/27 04:46:35;;;;;;;9.23;0.73;;;;;;;7.16;100.00;99664.88;5138511;27;20018;-88
2022/09/27 04:49:01;;;;;;;4.43;0.70;;;;;;;7.11;100.00;99657.47;5138691;27;20535;-88
2022/09/27 04:51:27;;;;;;;5.13;1.03;;;;;;;7.10;100.00;99657.69;5138908;27;20023;-88
2022/09/27 04:53:57;;;;;;;4.00;0.45;;;;;;;7.09;100.00;99664.97;5122379;27;20117;-87
2022/09/27 04:56:27;;;;;;;5.15;0.60;;;;;;;7.09;100.00;99673.06;5120941;27;20035;-88
2022/09/27 04:58:56;;;;;;;4.18;0.50;;;;;;;7.08;100.00;99675.97;5122284;27;20050;-88
2022/09/27 05:01:21;;;;;;;2.33;0.50;;;;;;;7.10;100.00;99671.16;5139159;27;20037;-88
2022/09/27 05:03:47;;;;;;;6.22;0.80;;;;;;;7.11;100.00;99686.31;5138557;27;20023;-88
2022/09/27 05:06:13;;;;;;;5.70;0.85;;;;;;;7.10;100.00;99688.19;5138428;27;20027;-89
2022/09/27 05:08:38;;;;;;;4.38;0.80;;;;;;;7.11;100.00;99705.19;5138718;27;20067;-89
2022/09/27 05:11:09;;;;;;;9.17;0.60;;;;;;;7.11;100.00;99700.63;5157000;27;20135;-89
2022/09/27 05:13:36;;;;;;;5.93;1.38;;;;;;;7.12;100.00;99693.38;5138777;27;20451;-88
2022/09/27 05:16:03;;;;;;;7.47;1.23;;;;;;;7.12;100.00;99696.06;5138226;27;20565;-88
2022/09/27 05:18:28;;;;;;;2.42;0.60;;;;;;;7.11;100.00;99692.53;5156612;27;20033;-88
2022/09/27 05:20:55;;;;;;;5.22;0.60;;;;;;;7.08;100.00;99698.38;5138967;27;20027;-88
2022/09/27 05:23:21;;;;;;;7.60;0.80;;;;;;;7.08;100.00;99701.06;5156358;27;20022;-88
2022/09/27 05:25:46;;;;;;;4.40;0.80;;;;;;;7.06;100.00;99689.69;5138444;27;20078;-86
2022/09/27 05:28:17;;;;;;;5.80;0.50;;;;;;;7.02;100.00;99691.97;5137817;27;20031;-89
2022/09/27 05:30:48;;;;;;;5.15;0.80;;;;;;;7.01;100.00;99690.34;5137726;27;20031;-88
2022/09/27 05:33:13;;;;;;;4.88;0.77;;;;;;;7.01;100.00;99693.03;5156551;27;20023;-89
2022/09/27 05:35:41;;;;;;;4.50;0.70;;;;;;;7.00;100.00;99693.25;5137814;27;20382;-89
2022/09/27 05:38:06;;;;;;;5.35;0.52;;;;;;;7.02;100.00;99691.97;5137776;27;20023;-86
2022/09/27 05:40:32;;;;;;;5.40;0.77;;;;;;;7.03;100.00;99693.63;5156137;27;20033;-87
2022/09/27 05:42:57;;;;;;;3.80;0.90;;;;;;;7.05;100.00;99703.38;5156539;27;20031;-87
2022/09/27 05:45:26;;;;;;;7.50;1.08;;;;;;;7.03;100.00;99695.50;5137277;27;20762;-88
2022/09/27 05:47:56;;;;;;;2.92;1.50;;;;;;;7.06;100.00;99691.53;5138208;27;20030;-88
2022/09/27 05:50:25;;;;;;;6.10;1.10;;;;;;;7.08;100.00;99694.84;5137823;27;20045;-87
2022/09/27 05:52:52;;;;;;;2.45;0.73;;;;;;;7.10;100.00;99703.53;5137101;27;20023;-87
2022/09/27 05:55:17;;;;;;;2.85;1.15;;;;;;;7.08;100.00;99703.75;5137172;27;20060;-86
2022/09/27 05:57:54;;;;;;;4.20;0.63;;;;;;;7.10;100.00;99707.06;5137290;27;20034;-85
2022/09/27 06:00:19;;;;;;;3.33;0.80;;;;;;;7.13;100.00;99712.03;5136993;27;20043;-86
2022/09/27 06:02:59;;;;;;;3.73;0.63;;;;;;;7.11;100.00;99711.41;5156037;27;20031;-86
2022/09/27 06:05:36;;;;;;;5.50;0.80;;;;;;;7.08;100.00;99708.34;5137249;27;20027;-87
2022/09/27 06:08:07;;;;;;;2.10;0.60;;;;;;;7.06;100.00;99705.88;5136598;27;20527;-87
2022/09/27 06:10:35;;;;;;;3.50;0.77;;;;;;;7.01;100.00;99709.22;5137143;27;20096;-86
2022/09/27 06:13:06;;;;;;;3.05;0.70;;;;;;;7.01;100.00;99714.63;5136725;27;20126;-87
2022/09/27 06:15:33;;;;;;;6.77;0.70;;;;;;;7.00;100.00;99717.53;5137395;27;20027;-86
2022/09/27 06:18:04;;;;;;;2.97;0.50;;;;;;;6.96;100.00;99702.84;5136511;27;20030;-88
2022/09/27 06:23:37;;;;;;;4.07;0.80;;;;;;;6.95;100.00;99703.88;5128347;27;20044;-86
2022/09/27 06:26:06;;;;;;;3.57;0.70;;;;;;;6.97;100.00;99697.22;5136311;27;20452;-87
2022/09/27 06:28:34;;;;;;;3.70;0.90;;;;;;;6.95;100.00;99696.63;5155699;27;20026;-87
2022/09/27 06:30:59;;;;;;;3.30;0.98;;;;;;;6.97;100.00;99701.78;5121118;27;20382;-86
2022/09/27 06:33:27;;;;;;;3.07;1.10;;;;;;;6.96;100.00;99711.75;5119904;27;20031;-86
2022/09/27 06:35:52;;;;;;;4.38;1.20;;;;;;;6.93;100.00;99706.78;5137488;27;20034;-86
2022/09/27 06:38:24;;;;;;;2.50;1.27;;;;;;;6.93;100.00;99706.78;5137310;27;20094;-86
2022/09/27 06:40:50;;;;;;;4.90;1.30;;;;;;;6.94;100.00;99713.00;5155800;27;20030;-86
2022/09/27 06:43:18;;;;;;;5.07;1.70;;;;;;;6.94;100.00;99723.78;5136495;27;20374;-87
2022/09/27 06:45:44;;;;;;;6.68;1.23;;;;;;;6.92;100.00;99709.69;5119589;27;20492;-87
2022/09/27 06:48:14;;;;;;;6.38;1.83;;;;;;;6.94;100.00;99721.09;5136137;27;20155;-88
2022/09/27 06:50:42;;;;;;;5.07;1.90;;;;;;;6.92;100.00;99707.81;5155970;27;20038;-87
2022/09/27 06:53:10;;;;;;;4.93;1.90;;;;;;;6.95;100.00;99699.31;5136138;27;20065;-87
2022/09/27 06:55:36;;;;;;;8.82;2.30;;;;;;;6.97;100.00;99699.09;5135729;27;20038;-87
2022/09/27 07:00:51;;;;;;;11.05;2.50;;;;;;;7.05;100.00;99708.78;5154638;27;20088;-86
2022/09/27 07:03:31;;;;;;;5.60;2.65;;;;;;;7.08;100.00;99719.94;5136768;27;20092;-87
2022/09/27 07:06:02;;;;;;;7.57;2.60;;;;;;;7.11;100.00;99716.81;5155610;27;20027;-86
2022/09/27 07:08:28;;;;;;;7.35;2.65;;;;;;;7.17;100.00;99712.41;5136467;27;20022;-87
2022/09/27 07:11:05;;;;;;;6.63;2.50;;;;;;;7.17;100.00;99713.22;5136372;27;20080;-86
2022/09/27 07:13:33;;;;;;;6.97;3.33;;;;;;;7.24;100.00;99715.06;5119268;27;20033;-86
2022/09/27 07:16:00;;;;;;;7.15;3.00;;;;;;;7.30;100.00;99717.69;5119576;27;20489;-86
2022/09/27 07:18:26;;;;;;;6.00;3.20;;;;;;;7.38;100.00;99720.09;5137291;27;20034;-85
2022/09/27 07:20:52;;;;;;;6.53;2.97;;;;;;;7.41;100.00;99729.63;5123496;27;20140;-86
2022/09/27 07:23:26;;;;;;;9.67;3.13;;;;;;;7.43;100.00;99715.94;5140196;27;20015;-86
2022/09/27 07:25:51;;;;;;;6.35;3.33;;;;;;;7.49;100.00;99721.25;5140538;27;20034;-86
2022/09/27 07:28:19;;;;;;;8.73;3.80;;;;;;;7.49;100.00;99723.94;5140025;27;20030;-86
2022/09/27 07:30:45;;;;;;;12.25;3.83;;;;;;;7.51;100.00;99719.16;5140523;27;20018;-86
2022/09/27 07:33:14;;;;;;;6.72;3.97;;;;;;;7.51;100.00;99734.50;5140281;27;20022;-86
2022/09/27 07:35:40;;;;;;;9.23;4.13;;;;;;;7.49;100.00;99732.03;5139784;27;20028;-86
2022/09/27 07:38:07;;;;;;;11.93;4.20;;;;;;;7.50;100.00;99722.06;5140102;27;20026;-86
2022/09/27 07:40:36;;;;;;;8.17;4.43;;;;;;;7.51;100.00;99727.25;5140157;27;20035;-86
2022/09/27 07:43:01;;;;;;;14.70;4.65;;;;;;;7.52;100.00;99726.19;5139757;27;20027;-87
2022/09/27 07:45:27;;;;;;;11.70;5.40;;;;;;;7.55;100.00;99725.75;5123511;27;20031;-86
2022/09/27 07:47:53;;;;;;;10.77;4.60;;;;;;;7.53;100.00;99732.44;5158531;27;20063;-86
2022/09/27 07:50:19;;;;;;;12.48;5.22;;;;;;;7.53;100.00;99730.56;5139890;27;20477;-87
2022/09/27 07:52:47;;;;;;;13.43;5.40;;;;;;;7.55;100.00;99728.44;5123110;27;20026;-86
2022/09/27 07:55:14;;;;;;;16.17;6.50;;;;;;;7.57;100.00;99730.09;5139832;27;20027;-86
2022/09/27 07:57:40;;;;;;;10.60;5.03;;;;;;;7.60;100.00;99737.75;5158387;27;20026;-86
2022/09/27 08:00:11;;;;;;;12.32;6.20;;;;;;;7.60;100.00;99743.16;5139416;27;20054;-86
2022/09/27 08:02:36;;;;;;;11.18;6.40;;;;;;;7.61;100.00;99748.31;5158252;27;20055;-86
2022/09/27 08:05:06;;;;;;;10.87;5.43;;;;;;;7.63;100.00;99740.84;5157933;27;20049;-87
2022/09/27 08:07:36;;;;;;;13.43;6.57;;;;;;;7.67;100.00;99755.53;5122873;27;20397;-86
2022/09/27 08:10:05;;;;;;;16.48;7.57;;;;;;;7.65;100.00;99746.84;5139491;27;20034;-86
2022/09/27 08:12:30;;;;;;;15.77;6.88;;;;;;;7.70;100.00;99757.78;5139514;27;20030;-85
2022/09/27 08:15:00;;;;;;;14.57;7.27;;;;;;;7.76;100.00;99757.94;5122096;27;20430;-85
2022/09/27 08:17:29;;;;;;;17.20;7.22;;;;;;;7.77;100.00;99759.59;5139893;27;20489;-86
2022/09/27 08:19:55;;;;;;;14.88;7.32;;;;;;;7.82;100.00;99763.25;5139395;27;20027;-86
2022/09/27 08:22:21;;;;;;;17.23;6.95;;;;;;;7.84;100.00;99752.25;5121886;27;20042;-85
2022/09/27 08:24:49;;;;;;;25.30;8.30;;;;;;;7.87;100.00;99758.03;5139225;27;20389;-86
2022/09/27 08:27:15;;;;;;;18.52;8.60;;;;;;;7.89;100.00;99749.69;5139110;27;20427;-85
2022/09/27 08:29:44;;;;;;;19.17;8.57;;;;;;;7.93;100.00;99752.78;5138942;27;20087;-86
2022/09/27 08:32:11;;;;;;;19.27;9.87;;;;;;;7.93;100.00;99763.56;5122033;27;20035;-86
2022/09/27 08:34:39;;;;;;;18.58;10.18;;;;;;;7.95;100.00;99759.59;5121823;27;20027;-86
2022/09/27 08:37:04;;;;;;;23.55;10.52;;;;;;;7.99;100.00;99760.81;5139852;27;20109;-85
2022/09/27 08:39:30;;;;;;;21.17;11.00;;;;;;;7.97;100.00;99752.13;5138695;27;20047;-85
2022/09/27 08:42:01;;;;;;;18.80;10.40;;;;;;;8.03;100.00;99747.66;5138750;27;20027;-85
2022/09/27 08:44:40;;;;;;;20.98;11.48;;;;;;;8.07;100.00;99748.88;5139713;27;20130;-85
2022/09/27 08:47:17;;;;;;;25.48;12.25;;;;;;;8.06;100.00;99752.63;5138944;27;20043;-85
2022/09/27 08:49:48;;;;;;;25.33;12.27;;;;;;;8.14;100.00;99752.31;5138257;27;20026;-85
2022/09/27 08:52:31;;;;;;;25.33;12.98;;;;;;;8.20;100.00;99754.13;5157927;27;20107;-85
2022/09/27 08:55:01;;;;;;;27.47;13.40;;;;;;;8.24;100.00;99752.63;5138850;27;20034;-85
2022/09/27 08:57:27;;;;;;;26.63;13.63;;;;;;;8.28;100.00;99757.56;5138851;27;20457;-86
2022/09/27 09:00:06;;;;;;;29.27;13.90;;;;;;;8.31;100.00;99755.25;5138432;27;20058;-86
2022/09/27 09:02:33;;;;;;;29.17;13.50;;;;;;;8.35;100.00;99758.31;5138139;27;20030;-86
2022/09/27 09:05:05;;;;;;;29.25;14.27;;;;;;;8.39;100.00;99756.81;5156808;27;20031;-86
2022/09/27 09:08:01;;;;;;;32.17;14.75;;;;;;;8.42;100.00;99759.88;5138781;27;20518;-86
2022/09/27 09:13:39;;;;;;;28.13;12.83;;;;;;;8.39;100.00;99762.22;5157523;27;20045;-86
2022/09/27 09:16:27;;;;;;;30.30;13.32;;;;;;;8.40;100.00;99762.00;5138534;27;20034;-86
2022/09/27 09:18:59;;;;;;;25.15;11.38;;;;;;;8.36;100.00;99771.59;5137745;27;20030;-86
2022/09/27 09:21:53;;;;;;;33.03;13.85;;;;;;;8.41;100.00;99777.16;5138819;27;20037;-86
2022/09/27 09:24:19;;;;;;;28.33;13.85;;;;;;;8.47;100.00;99774.63;5157203;27;20026;-86
2022/09/27 09:27:08;;;;;;;25.57;13.87;;;;;;;8.48;100.00;99778.97;5156310;27;20031;-86
2022/09/27 09:29:43;;;;;;;27.43;13.70;;;;;;;8.58;100.00;99781.97;5156222;27;20113;-86
2022/09/27 09:32:26;;;;;;;32.50;14.13;;;;;;;8.62;100.00;99777.72;5137973;27;20030;-86
2022/09/27 09:35:32;;;;;;;32.72;15.57;;;;;;;8.67;100.00;99774.38;5156882;27;20104;-85
2022/09/27 09:38:02;;;;;;;33.13;17.02;;;;;;;8.59;100.00;99767.38;5136995;27;20035;-86
2022/09/27 09:40:40;;;;;;;28.70;15.18;;;;;;;8.56;100.00;99792.16;5137606;27;20113;-86
2022/09/27 09:43:17;;;;;;;28.33;15.10;;;;;;;8.59;100.00;99775.47;5137026;27;20164;-86
2022/09/27 09:45:53;;;;;;;32.15;15.38;;;;;;;8.65;100.00;99779.16;5138533;27;20457;-85
2022/09/27 09:48:44;;;;;;;29.75;16.30;;;;;;;8.59;100.00;99776.34;5137897;27;20023;-86
2022/09/27 09:51:21;;;;;;;26.35;13.32;;;;;;;8.53;100.00;99777.25;5137468;27;20023;-86
2022/09/27 09:54:01;;;;;;;24.45;13.45;;;;;;;8.46;100.00;99790.03;5155988;27;20072;-86
2022/09/27 09:56:31;;;;;;;19.43;11.33;;;;;;;8.48;100.00;99782.50;5138139;27;20031;-86
2022/09/27 09:59:03;;;;;;;22.10;11.50;;;;;;;8.45;100.00;99791.06;5137188;27;20078;-86
2022/09/27 10:01:43;;;;;;;19.40;10.65;;;;;;;8.58;100.00;99787.38;5156008;27;20037;-86
2022/09/27 10:04:19;;;;;;;12.88;7.80;;;;;;;8.51;100.00;99786.63;5137540;27;20027;-85
2022/09/27 10:06:46;;;;;;;10.57;5.20;;;;;;;8.39;100.00;99791.94;5156158;27;20050;-85
2022/09/27 10:09:15;;;;;;;10.00;4.97;;;;;;;8.32;100.00;99781.22;5137407;27;20121;-86
2022/09/27 10:11:46;;;;;;;6.95;2.90;;;;;;;8.15;100.00;99794.50;5137517;27;20061;-86
2022/09/27 10:14:14;;;;;;;6.43;2.88;;;;;;;8.07;100.00;99789.41;5137191;27;20026;-86
2022/09/27 10:16:45;;;;;;;10.13;2.67;;;;;;;8.10;100.00;99788.13;5137413;27;20575;-86
2022/09/27 10:19:14;;;;;;;6.80;2.15;;;;;;;8.06;100.00;99785.88;5156242;27;20023;-87
2022/09/27 10:21:44;;;;;;;5.90;2.20;;;;;;;8.04;100.00;99784.44;5155698;27;20027;-86
2022/09/27 10:24:13;;;;;;;5.35;1.67;;;;;;;7.97;100.00;99787.25;5136850;27;20026;-86
2022/09/27 10:26:42;;;;;;;6.85;1.35;;;;;;;7.89;100.00;99791.03;5155583;27;20034;-86
2022/09/27 10:29:32;;;;;;;5.53;1.90;;;;;;;7.86;100.00;99806.88;5136953;27;20023;-86
2022/09/27 10:32:02;;;;;;;4.30;0.82;;;;;;;7.77;100.00;99806.34;5155435;27;20154;-86
2022/09/27 10:34:37;;;;;;;3.07;0.60;;;;;;;7.75;100.00;99791.38;5136589;27;20114;-86
2022/09/27 10:37:11;;;;;;;2.38;0.60;;;;;;;7.75;100.00;99797.63;5155493;27;20026;-86
2022/09/27 10:39:40;;;;;;;1.02;0.63;;;;;;;7.71;100.00;99794.53;5136827;27;20445;-86
2022/09/27 10:42:35;;;;;;;2.58;0.60;;;;;;;7.70;100.00;99803.69;5136844;27;20079;-86
2022/09/27 10:45:26;;;;;;;2.25;0.60;;;;;;;7.72;100.00;99803.44;5136908;27;20485;-85
2022/09/27 10:47:55;;;;;;;4.23;0.90;;;;;;;7.84;100.00;99801.69;5137178;27;20130;-86
2022/09/27 10:50:31;;;;;;;1.08;0.60;;;;;;;7.92;100.00;99795.16;5136319;27;20113;-86
2022/09/27 10:53:14;;;;;;;2.20;0.93;;;;;;;7.97;100.00;99800.75;5136655;27;20027;-86
2022/09/27 10:56:03;;;;;;;3.35;1.00;;;;;;;8.08;100.00;99802.69;5141782;27;20019;-85
2022/09/27 10:58:35;;;;;;;2.25;1.13;;;;;;;8.21;100.00;99799.00;5141080;27;20031;-86
2022/09/27 11:01:04;;;;;;;3.40;1.20;;;;;;;8.24;100.00;99806.66;5141020;27;20034;-86
2022/09/27 11:03:35;;;;;;;3.88;0.80;;;;;;;8.11;100.00;99806.81;5140732;27;20106;-85
2022/09/27 11:06:19;;;;;;;5.28;0.90;;;;;;;8.02;100.00;99794.66;5140764;27;20023;-86
2022/09/27 11:08:47;;;;;;;2.05;0.57;;;;;;;7.97;100.00;99792.63;5140749;27;20030;-86
2022/09/27 11:11:12;;;;;;;1.10;0.50;;;;;;;7.97;100.00;99792.63;5140040;27;20042;-86
2022/09/27 11:13:39;;;;;;;2.37;0.40;;;;;;;7.99;100.00;99784.31;5158872;27;20019;-85
2022/09/27 11:16:04;;;;;;;1.60;0.40;;;;;;;8.06;100.00;99793.13;5140578;27;20023;-86
2022/09/27 11:19:01;;;;;;;1.73;0.40;;;;;;;8.08;100.00;99772.97;5158853;27;20191;-86
2022/09/27 11:21:33;;;;;;;2.05;0.40;;;;;;;8.23;100.00;99769.06;5158882;27;20023;-86
2022/09/27 11:25:00;;;;;;;2.70;0.70;;;;;;;8.63;100.00;99770.47;5141424;27;20041;-85
2022/09/27 11:28:11;;;;;;;2.08;0.80;;;;;;;9.02;100.00;99765.53;5032162;28;20049;-86
2022/09/27 11:30:57;;;;;;;4.45;0.80;;;;;;;9.55;100.00;99763.84;5135372;27;20432;-85
2022/09/27 11:33:47;;;;;;;4.10;0.90;;;;;;;10.04;100.00;99764.41;5140210;27;20026;-86
2022/09/27 11:36:46;;;;;;;5.30;1.17;;;;;;;10.48;100.00;99759.38;5158877;27;20018;-86
2022/09/27 11:39:36;;;;;;;3.30;1.10;;;;;;;10.98;100.00;99759.72;5140560;27;20031;-85
2022/09/27 11:42:27;;;;;;;2.90;0.77;;;;;;;11.26;100.00;99756.09;5158711;27;20026;-86
2022/09/27 11:45:11;;;;;;;2.42;0.70;;;;;;;11.38;100.00;99759.59;5159236;27;20113;-85
2022/09/27 11:47:44;;;;;;;0.95;0.60;;;;;;;11.52;100.00;99761.97;5139957;27;20311;-86
2022/09/27 11:50:37;;;;;;;3.35;0.40;;;;;;;11.76;100.00;99763.41;5158300;27;20054;-86
2022/09/27 11:53:19;;;;;;;2.23;0.50;;;;;;;11.91;100.00;99762.81;5140113;27;20031;-86
2022/09/27 11:55:53;;;;;;;3.97;0.50;;;;;;;12.07;100.00;99763.03;5139822;27;20056;-86
2022/09/27 11:58:29;;;;;;;1.95;0.50;;;;;;;12.21;100.00;99775.19;5139977;27;20114;-85
2022/09/27 12:01:13;;;;;;;2.08;0.40;;;;;;;12.31;100.00;99760.88;5139064;27;20043;-86
2022/09/27 12:04:16;;;;;;;1.70;0.77;;;;;;;12.85;100.00;99762.84;5138913;27;20058;-86
2022/09/27 12:07:06;;;;;;;2.30;0.70;;;;;;;13.36;100.00;99751.63;5138893;27;20035;-86
2022/09/27 12:09:38;;;;;;;1.92;0.60;;;;;;;14.23;100.00;99754.03;5158113;27;20498;-86
2022/09/27 12:12:10;;;;;;;2.28;0.57;;;;;;;14.78;90.64;99742.75;5140075;27;20063;-86
2022/09/27 12:14:43;;;;;;;1.38;0.52;;;;;;;14.57;83.71;99754.44;5157674;27;20034;-86
2022/09/27 12:17:19;;;;;;;1.55;0.40;;;;;;;14.66;93.49;99753.94;5158023;27;20034;-86